Yellowstone Airport
KWYS : now visible

Aeroporto :











RITROVATECI SU...

 
LOGIN :

Iscrizione | Disclaimer

   EN    FR    IT 

 









Sommario :    VFR   VFR Marginale   IFR   IFR Intensivo   IFR Molto Intensivo
Visibilità : 
Base nubi : 
>= 8 km
>= 3000ft
5 / 8 km
1000 / 3000 ft
1500m / 5 km
500 / 1000 ft
800 / 1500m
200 / 500 ft
< 800m
< 200 ft
Simboli :   Temporali  Nebbia  Neve Forte  Precipitazioni Forti  Vento > 20 kt






- Altitudine del aeroporto : 6649 ft


KWYS - Yellowstone

ULTIMO METAR :
  • 151805Z AUTO 00000KT 10SM CLR 01/M04 A3017 RMK AO2

METARs OBSOLETI :
  • 151750Z AUTO 00000KT 10SM CLR M00/M04 A3017 RMK AO2
  • 151730Z AUTO 00000KT 10SM CLR M01/M04 A3018 RMK AO2
  • 151710Z AUTO 00000KT 10SM CLR M01/M04 A3018 RMK AO2
  • 151650Z AUTO 00000KT 10SM FEW120 M01/M04 A3018 RMK AO2
  • 151630Z AUTO VRB03KT 10SM FEW090 BKN120 M02/M04 A3018 RMK AO2
  • 151610Z AUTO 00000KT 10SM BKN095 OVC120 M04/M05 A3019 RMK AO2
  • 151545Z AUTO 16004KT 10SM BKN110 M05/M06 A3019 RMK AO2
  • 151525Z AUTO 00000KT 10SM BKN110 M07/M07 A3019 RMK AO2

TAF KWYS
Valido dal 15 a 18 ore il 16 a 18 ore UTC


151720Z 1518/1618 21008KT P6SM SCT060 BKN120
PROB30 1607/1611 4SM -SN BKN015
FM161300 VRB06KT P6SM FEW003 SCT050



MetMap, La meteo Aeronautica in un colpo d'occhio ! - Copyright ORBIFLY Dicembre 2007 - Disclaimer

ORBIFLY MET'MAP TEAM :

Programmazione e sviluppo : Alexandra Zaïnal
Concezione e sviluppo : Baudouin d'Aumeries
Co-Programmazione e sviluppo : Marc-Olivier Méhu
Supporto tecnico e logistico : Manuel Goepfert
Aiuto per la traduzione : Arnaldo La Scala

Contatto : metmap@orbifly.com




FONTI E CREDITI :

   NOAA       Earth
Advisory